createdAt,value
2018-08-11T00:00:56.063Z,78.90
2018-08-11T00:05:59.247Z,83.10
2018-08-11T00:11:02.434Z,88.50
2018-08-11T00:16:05.639Z,93.20
2018-08-11T00:21:08.879Z,93.90
2018-08-11T00:26:12.071Z,95.80
2018-08-11T00:31:15.300Z,95.30
2018-08-11T00:36:18.510Z,95.90
2018-08-11T00:41:22.051Z,96.90
2018-08-11T00:46:25.274Z,97.50
2018-08-11T00:51:28.527Z,97.50
2018-08-11T00:56:31.879Z,97.50
2018-08-11T01:01:35.124Z,97.50
2018-08-11T01:06:39.626Z,97.50
2018-08-11T01:11:42.831Z,97.50
2018-08-11T01:16:46.035Z,97.10
2018-08-11T01:21:49.270Z,97.50
2018-08-11T01:26:52.542Z,97.50
2018-08-11T01:31:55.732Z,97.20
2018-08-11T01:36:58.971Z,96.20
2018-08-11T01:42:02.215Z,97.20
2018-08-11T01:47:05.467Z,97.50
2018-08-11T01:52:08.915Z,95.70
2018-08-11T01:57:12.135Z,96.50
2018-08-11T02:02:15.347Z,94.40
2018-08-11T02:07:18.571Z,94.00
2018-08-11T02:12:21.795Z,93.90
2018-08-11T02:17:25.049Z,94.40
2018-08-11T02:22:28.279Z,96.40
2018-08-11T02:27:31.498Z,97.50
2018-08-11T02:32:34.723Z,97.20
2018-08-11T02:37:37.985Z,97.50
2018-08-11T02:42:41.223Z,96.50
2018-08-11T02:47:45.018Z,94.90
2018-08-11T02:52:48.212Z,96.20
2018-08-11T02:57:51.443Z,97.20
2018-08-11T03:02:54.674Z,97.50
2018-08-11T03:07:58.028Z,97.50
2018-08-11T03:13:01.224Z,97.50
2018-08-11T03:18:04.451Z,97.50
2018-08-11T03:23:07.664Z,97.50
2018-08-11T03:28:10.992Z,97.50
2018-08-11T03:33:14.648Z,97.50
2018-08-11T03:38:17.902Z,97.50
2018-08-11T03:43:21.091Z,97.50
2018-08-11T03:48:24.327Z,97.50
2018-08-11T03:53:27.563Z,97.50
2018-08-11T03:58:31.477Z,97.50
2018-08-11T04:03:34.719Z,97.50
2018-08-11T04:08:38.013Z,97.50
2018-08-11T04:13:41.295Z,97.50
2018-08-11T04:18:44.582Z,97.50
2018-08-11T04:23:47.818Z,97.50
2018-08-11T04:28:51.023Z,97.50
2018-08-11T04:33:54.356Z,97.50
2018-08-11T04:38:57.607Z,97.50
2018-08-11T04:44:00.846Z,97.50
2018-08-11T04:49:04.092Z,96.50
2018-08-11T04:54:07.315Z,97.20
2018-08-11T04:59:10.563Z,96.10
2018-08-11T05:04:13.831Z,94.60
2018-08-11T05:09:17.088Z,92.80
2018-08-11T05:14:20.374Z,91.60
2018-08-11T05:19:23.595Z,92.80
2018-08-11T05:24:27.229Z,91.50
2018-08-11T05:29:30.439Z,90.70
2018-08-11T05:34:33.659Z,88.00
2018-08-11T05:39:36.874Z,82.50
2018-08-11T05:44:40.092Z,77.50
2018-08-11T05:49:43.306Z,76.30
2018-08-11T05:54:46.539Z,77.10
2018-08-11T05:59:49.772Z,76.20
2018-08-11T06:04:52.995Z,72.30
2018-08-11T06:09:56.230Z,69.00
2018-08-11T06:14:59.434Z,68.30
2018-08-11T06:20:02.844Z,65.30
2018-08-11T06:25:08.008Z,62.30
2018-08-11T06:30:11.279Z,61.20
2018-08-11T06:35:14.885Z,65.40
2018-08-11T06:40:18.079Z,62.30
2018-08-11T06:45:21.979Z,59.90
2018-08-11T06:50:25.481Z,57.60
2018-08-11T06:55:28.818Z,55.00
2018-08-11T07:00:32.152Z,57.40
2018-08-11T07:05:35.413Z,55.40
2018-08-11T07:10:38.638Z,55.40
2018-08-11T07:15:41.868Z,54.90
2018-08-11T07:20:45.091Z,54.60
2018-08-11T07:25:48.299Z,54.00
2018-08-11T07:30:51.515Z,53.60
2018-08-11T07:35:54.777Z,51.60
2018-08-11T07:40:57.990Z,52.20
2018-08-11T07:46:01.575Z,51.00
2018-08-11T07:51:04.803Z,50.20
2018-08-11T07:56:08.115Z,50.50
2018-08-11T08:01:11.372Z,50.00
2018-08-11T08:06:15.004Z,50.80
2018-08-11T08:11:18.345Z,48.50
2018-08-11T08:16:21.695Z,47.60
2018-08-11T08:21:25.346Z,47.70
2018-08-11T08:26:28.737Z,47.10
2018-08-11T08:31:31.839Z,48.30
2018-08-11T08:36:35.031Z,50.10
2018-08-11T08:41:39.154Z,49.70
2018-08-11T08:46:42.392Z,49.30
2018-08-11T08:51:45.601Z,50.70
2018-08-11T08:56:48.822Z,50.00
2018-08-11T09:01:52.023Z,50.10
2018-08-11T09:06:55.235Z,47.80
2018-08-11T09:11:58.527Z,46.50
2018-08-11T09:17:01.687Z,46.20
2018-08-11T09:22:04.894Z,47.90
2018-08-11T09:27:08.119Z,45.40
2018-08-11T09:32:11.318Z,45.40
2018-08-11T09:37:14.511Z,46.60
2018-08-11T09:42:17.746Z,44.50
2018-08-11T09:47:20.978Z,45.20
2018-08-11T09:52:24.271Z,43.00
2018-08-11T09:57:27.387Z,43.90
2018-08-11T10:02:30.603Z,42.90
2018-08-11T10:07:33.811Z,47.60
2018-08-11T10:12:37.042Z,51.80
2018-08-11T10:17:40.256Z,49.50
2018-08-11T10:22:43.511Z,51.90
2018-08-11T10:27:46.740Z,49.10
2018-08-11T10:32:49.979Z,46.30
2018-08-11T10:37:53.314Z,46.00
2018-08-11T10:42:56.571Z,44.80
2018-08-11T10:47:59.783Z,44.20
2018-08-11T10:53:02.985Z,43.30
2018-08-11T10:58:07.086Z,43.20
2018-08-11T11:03:10.284Z,45.10
2018-08-11T11:08:13.553Z,43.70
2018-08-11T11:13:16.899Z,43.90
2018-08-11T11:18:20.095Z,43.10
2018-08-11T11:23:23.346Z,43.80
2018-08-11T11:28:26.563Z,42.90
2018-08-11T11:33:29.787Z,42.70
2018-08-11T11:38:32.999Z,41.50
2018-08-11T11:43:36.211Z,45.40
2018-08-11T11:48:39.458Z,47.30
2018-08-11T11:53:42.680Z,49.60
2018-08-11T11:58:45.894Z,49.00
2018-08-11T12:03:49.124Z,47.10
2018-08-11T12:08:52.355Z,47.80
2018-08-11T12:13:55.563Z,47.70
2018-08-11T12:18:58.795Z,46.90
2018-08-11T12:24:02.105Z,49.20
2018-08-11T12:29:05.346Z,50.50
2018-08-11T12:34:08.583Z,49.00
2018-08-11T12:39:11.902Z,48.50
2018-08-11T12:44:15.175Z,46.60
2018-08-11T12:49:18.820Z,47.00
2018-08-11T12:54:22.078Z,48.00
2018-08-11T12:59:25.326Z,48.10
2018-08-11T13:04:28.591Z,48.10
2018-08-11T13:09:31.791Z,47.70
2018-08-11T13:14:35.098Z,46.30
2018-08-11T13:19:38.404Z,46.50
2018-08-11T13:24:41.638Z,47.10
2018-08-11T13:29:44.879Z,46.70
2018-08-11T13:34:48.083Z,48.50
2018-08-11T13:39:52.185Z,48.10
2018-08-11T13:44:55.426Z,47.10
2018-08-11T13:49:59.404Z,44.80
2018-08-11T13:55:02.650Z,45.20
2018-08-11T14:00:06.942Z,45.20
2018-08-11T14:05:10.170Z,45.10
2018-08-11T14:10:13.423Z,44.60
2018-08-11T14:15:16.651Z,45.30
2018-08-11T14:20:19.943Z,45.60
2018-08-11T14:25:23.210Z,45.90
2018-08-11T14:30:26.402Z,45.00
2018-08-11T14:35:29.631Z,45.40
2018-08-11T14:40:32.846Z,45.10
2018-08-11T14:45:36.131Z,45.60
2018-08-11T14:50:39.464Z,44.10
2018-08-11T14:55:43.546Z,44.00
2018-08-11T15:00:46.770Z,45.50
2018-08-11T15:05:49.970Z,45.40
2018-08-11T15:10:53.177Z,45.30
2018-08-11T15:15:56.462Z,45.20
2018-08-11T15:20:59.839Z,45.70
2018-08-11T15:26:03.055Z,46.30
2018-08-11T15:31:06.263Z,46.80
2018-08-11T15:36:09.515Z,47.50
2018-08-11T15:41:12.723Z,48.30
2018-08-11T15:46:15.955Z,48.90
2018-08-11T15:51:19.171Z,49.40
2018-08-11T15:56:22.736Z,50.00
2018-08-11T16:01:25.968Z,49.50
2018-08-11T16:06:29.182Z,48.00
2018-08-11T16:11:32.394Z,49.10
2018-08-11T16:16:35.603Z,49.00
2018-08-11T16:21:38.839Z,49.90
2018-08-11T16:26:42.104Z,50.00
2018-08-11T16:31:45.335Z,49.90
2018-08-11T16:36:48.610Z,50.60
2018-08-11T16:41:51.836Z,48.90
2018-08-11T16:46:55.059Z,47.90
2018-08-11T16:51:58.339Z,48.30
2018-08-11T16:57:01.566Z,50.10
2018-08-11T17:02:04.765Z,51.10
2018-08-11T17:07:08.249Z,50.30
2018-08-11T17:12:11.442Z,50.10
2018-08-11T17:17:14.635Z,50.50
2018-08-11T17:22:18.045Z,50.00
2018-08-11T17:27:21.270Z,51.50
2018-08-11T17:32:24.490Z,52.40
2018-08-11T17:37:27.691Z,52.20
2018-08-11T17:42:31.183Z,52.70
2018-08-11T17:47:34.427Z,51.10
2018-08-11T17:52:37.663Z,51.30
2018-08-11T17:57:41.383Z,51.60
2018-08-11T18:02:44.623Z,52.20
2018-08-11T18:07:47.848Z,52.80
2018-08-11T18:12:51.081Z,53.90
2018-08-11T18:17:54.675Z,53.90
2018-08-11T18:22:57.947Z,54.30
2018-08-11T18:28:01.162Z,54.80
2018-08-11T18:33:05.003Z,54.90
2018-08-11T18:38:08.223Z,55.20
2018-08-11T18:43:11.427Z,56.10
2018-08-11T18:48:14.703Z,56.90
2018-08-11T18:53:17.928Z,57.30
2018-08-11T18:58:21.155Z,58.50
2018-08-11T19:03:24.384Z,59.60
2018-08-11T19:08:28.208Z,59.50
2018-08-11T19:13:31.441Z,60.40
2018-08-11T19:18:34.724Z,61.70
2018-08-11T19:23:37.894Z,62.30
2018-08-11T19:28:41.091Z,63.60
2018-08-11T19:33:44.339Z,64.40
2018-08-11T19:38:47.539Z,65.20
2018-08-11T19:43:50.746Z,66.30
2018-08-11T19:48:53.989Z,66.50
2018-08-11T19:53:57.327Z,67.70
2018-08-11T19:59:00.591Z,68.20
2018-08-11T20:04:03.842Z,69.80
2018-08-11T20:09:08.526Z,69.90
2018-08-11T20:14:11.746Z,70.20
2018-08-11T20:19:15.157Z,71.40
2018-08-11T20:24:18.223Z,71.90
2018-08-11T20:29:21.478Z,72.50
2018-08-11T20:34:24.681Z,73.30
2018-08-11T20:39:27.893Z,75.10
2018-08-11T20:44:31.171Z,75.10
2018-08-11T20:49:34.454Z,75.90
2018-08-11T20:54:37.674Z,77.10
2018-08-11T20:59:41.207Z,76.60
2018-08-11T21:04:44.541Z,77.90
2018-08-11T21:09:47.735Z,78.60
2018-08-11T21:14:50.957Z,78.70
2018-08-11T21:19:54.185Z,79.70
2018-08-11T21:24:57.386Z,80.20
2018-08-11T21:30:00.691Z,81.10
2018-08-11T21:35:04.475Z,81.80
2018-08-11T21:40:10.439Z,82.70
2018-08-11T21:45:13.650Z,82.60
2018-08-11T21:50:16.891Z,81.50
2018-08-11T21:55:20.108Z,82.00
2018-08-11T22:00:28.374Z,81.60
2018-08-11T22:05:32.411Z,82.00
2018-08-11T22:10:36.008Z,82.20
2018-08-11T22:15:39.247Z,82.90
2018-08-11T22:20:42.515Z,84.30
2018-08-11T22:25:45.727Z,83.20
2018-08-11T22:30:48.982Z,82.80
2018-08-11T22:35:52.260Z,82.80
2018-08-11T22:40:55.422Z,82.50
2018-08-11T22:45:58.887Z,83.20
2018-08-11T22:51:02.131Z,83.50
2018-08-11T22:56:05.535Z,83.20
2018-08-11T23:01:08.755Z,83.30
2018-08-11T23:06:12.998Z,82.10
2018-08-11T23:11:16.217Z,81.40
2018-08-11T23:16:19.438Z,81.90
2018-08-11T23:21:22.651Z,81.50
2018-08-11T23:26:25.876Z,82.50
2018-08-11T23:31:29.094Z,83.90
2018-08-11T23:36:32.315Z,85.00
2018-08-11T23:41:35.681Z,84.20
2018-08-11T23:46:38.890Z,85.20
2018-08-11T23:51:42.107Z,86.10
2018-08-11T23:56:45.339Z,85.40
